createdAt,value
2022-10-15T00:00:36.347Z,3.17
2022-10-15T00:02:48.509Z,3.26
2022-10-15T00:05:01.274Z,3.29
2022-10-15T00:07:13.686Z,3.23
2022-10-15T00:09:15.758Z,3.28
2022-10-15T00:11:20.959Z,3.30
2022-10-15T00:13:23.274Z,3.33
2022-10-15T00:15:25.988Z,3.36
2022-10-15T00:17:39.787Z,3.36
2022-10-15T00:19:51.621Z,3.34
2022-10-15T00:22:05.275Z,3.31
2022-10-15T00:24:17.979Z,3.33
2022-10-15T00:26:25.746Z,3.29
2022-10-15T00:28:31.863Z,3.40
2022-10-15T00:30:36.566Z,3.37
2022-10-15T00:32:48.593Z,3.42
2022-10-15T00:35:01.226Z,3.46
2022-10-15T00:37:13.821Z,3.45
2022-10-15T00:39:17.478Z,3.40
2022-10-15T00:41:25.888Z,3.51
2022-10-15T00:43:50.866Z,3.54
2022-10-15T00:45:54.317Z,3.45
2022-10-15T00:47:56.704Z,3.49
2022-10-15T00:49:58.761Z,3.54
2022-10-15T00:52:10.895Z,3.49
2022-10-15T00:54:14.803Z,3.46
2022-10-15T00:56:21.162Z,3.55
2022-10-15T00:58:28.519Z,3.51
2022-10-15T01:00:31.370Z,3.58
2022-10-15T01:02:34.781Z,3.60
2022-10-15T01:04:37.867Z,3.58
2022-10-15T01:06:40.949Z,3.56
2022-10-15T01:08:45.208Z,3.62
2022-10-15T01:10:53.302Z,3.62
2022-10-15T01:13:01.682Z,3.59
2022-10-15T01:15:08.602Z,3.60
2022-10-15T01:17:19.590Z,3.61
2022-10-15T01:19:40.641Z,3.60
2022-10-15T01:21:59.127Z,3.60
2022-10-15T01:24:28.650Z,3.61
2022-10-15T01:26:33.279Z,3.61
2022-10-15T01:28:47.677Z,3.62
2022-10-15T01:31:02.652Z,3.57
2022-10-15T01:33:16.268Z,3.50
2022-10-15T01:35:25.406Z,3.64
2022-10-15T01:37:41.366Z,3.56
2022-10-15T01:39:51.725Z,3.53
2022-10-15T01:41:58.679Z,3.59
2022-10-15T01:44:11.342Z,3.62
2022-10-15T01:46:47.166Z,3.59
2022-10-15T01:48:58.290Z,3.60
2022-10-15T01:51:04.990Z,3.59
2022-10-15T01:53:10.298Z,3.57
2022-10-15T01:55:16.662Z,3.57
2022-10-15T01:57:21.645Z,3.53
2022-10-15T01:59:28.177Z,3.48
2022-10-15T02:01:30.480Z,3.59
2022-10-15T02:03:32.782Z,3.58
2022-10-15T02:05:48.592Z,3.55
2022-10-15T02:08:15.351Z,3.56
2022-10-15T02:10:59.954Z,3.55
2022-10-15T02:13:45.920Z,3.57
2022-10-15T02:16:11.017Z,3.61
2022-10-15T02:18:44.139Z,3.55
2022-10-15T02:20:59.813Z,3.61
2022-10-15T02:23:05.819Z,3.60
2022-10-15T02:25:14.338Z,3.58
2022-10-15T02:27:18.400Z,3.61
2022-10-15T02:29:25.223Z,3.53
2022-10-15T02:31:32.099Z,3.56
2022-10-15T02:33:36.054Z,3.66
2022-10-15T02:35:39.077Z,3.63
2022-10-15T02:37:47.602Z,3.65
2022-10-15T02:39:53.760Z,3.46
2022-10-15T02:41:57.712Z,3.67
2022-10-15T02:44:00.867Z,3.68
2022-10-15T02:46:03.416Z,3.66
2022-10-15T02:48:06.357Z,3.62
2022-10-15T02:50:09.398Z,3.67
2022-10-15T02:52:11.706Z,3.67
2022-10-15T02:54:15.061Z,3.62
2022-10-15T02:56:17.255Z,3.62
2022-10-15T02:58:19.473Z,3.69
2022-10-15T03:00:21.841Z,3.71
2022-10-15T03:02:24.427Z,3.68
2022-10-15T03:04:27.731Z,3.68
2022-10-15T03:06:30.192Z,3.68
2022-10-15T03:08:32.490Z,3.72
2022-10-15T03:10:36.655Z,3.75
2022-10-15T03:12:39.544Z,3.65
2022-10-15T03:14:41.668Z,3.71
2022-10-15T03:16:43.972Z,3.74
2022-10-15T03:18:47.044Z,3.73
2022-10-15T03:20:56.203Z,3.80
2022-10-15T03:22:58.652Z,3.73
2022-10-15T03:25:00.775Z,3.76
2022-10-15T03:27:06.077Z,3.78
2022-10-15T03:29:08.257Z,3.77
2022-10-15T03:31:17.194Z,3.80
2022-10-15T03:33:25.033Z,3.79
2022-10-15T03:35:28.962Z,3.80
2022-10-15T03:37:31.743Z,3.73
2022-10-15T03:39:34.174Z,3.74
2022-10-15T03:41:40.598Z,3.87
2022-10-15T03:43:43.466Z,3.78
2022-10-15T03:45:47.103Z,3.91
2022-10-15T03:47:54.275Z,3.89
2022-10-15T03:49:58.066Z,3.90
2022-10-15T03:52:03.470Z,3.90
2022-10-15T03:54:05.744Z,3.98
2022-10-15T03:56:14.577Z,3.85
2022-10-15T03:58:16.886Z,3.96
2022-10-15T04:00:27.448Z,3.89
2022-10-15T04:02:33.456Z,3.97
2022-10-15T04:04:35.671Z,3.91
2022-10-15T04:06:38.032Z,3.98
2022-10-15T04:08:43.708Z,3.96
2022-10-15T04:11:02.280Z,4.01
2022-10-15T04:13:04.555Z,3.95
2022-10-15T04:15:09.124Z,4.02
2022-10-15T04:17:14.621Z,4.03
2022-10-15T04:19:20.305Z,4.08
2022-10-15T04:21:33.052Z,4.07
2022-10-15T04:23:38.161Z,4.04
2022-10-15T04:26:12.694Z,4.00
2022-10-15T04:28:17.446Z,4.09
2022-10-15T04:30:21.721Z,4.15
2022-10-15T04:32:29.727Z,4.07
2022-10-15T04:34:32.129Z,4.16
2022-10-15T04:36:34.996Z,4.18
2022-10-15T04:39:05.303Z,4.15
2022-10-15T04:41:12.525Z,4.11
2022-10-15T04:43:37.895Z,4.13
2022-10-15T04:45:42.965Z,4.20
2022-10-15T04:47:46.202Z,4.27
2022-10-15T04:49:50.100Z,4.32
2022-10-15T04:52:21.631Z,4.33
2022-10-15T04:54:28.344Z,4.35
2022-10-15T04:56:36.779Z,4.41
2022-10-15T04:58:39.264Z,4.42
2022-10-15T05:00:41.517Z,4.37
2022-10-15T05:03:09.825Z,4.47
2022-10-15T05:05:18.584Z,4.48
2022-10-15T05:07:31.322Z,4.58
2022-10-15T05:09:36.978Z,4.53
2022-10-15T05:11:40.385Z,4.69
2022-10-15T05:13:47.797Z,4.69
2022-10-15T05:15:50.072Z,4.72
2022-10-15T05:17:53.928Z,4.80
2022-10-15T05:19:57.299Z,4.76
2022-10-15T05:22:02.844Z,4.83
2022-10-15T05:24:07.002Z,4.92
2022-10-15T05:26:35.259Z,4.91
2022-10-15T05:28:38.209Z,4.93
2022-10-15T05:30:41.164Z,5.00
2022-10-15T05:32:43.537Z,5.04
2022-10-15T05:34:47.871Z,5.09
2022-10-15T05:36:51.653Z,5.09
2022-10-15T05:38:58.765Z,5.11
2022-10-15T05:41:01.565Z,5.13
2022-10-15T05:43:03.915Z,5.12
2022-10-15T05:45:06.861Z,5.25
2022-10-15T05:47:12.606Z,5.30
2022-10-15T05:49:16.606Z,5.34
2022-10-15T05:51:28.963Z,5.36
2022-10-15T05:53:37.903Z,5.29
2022-10-15T05:55:43.125Z,5.43
2022-10-15T05:57:45.307Z,5.45
2022-10-15T05:59:47.907Z,5.50
2022-10-15T06:01:51.458Z,5.46
2022-10-15T06:03:56.759Z,5.45
2022-10-15T06:05:59.005Z,5.47
2022-10-15T06:08:01.135Z,5.57
2022-10-15T06:10:05.941Z,5.53
2022-10-15T06:12:11.137Z,5.65
2022-10-15T06:14:15.661Z,5.70
2022-10-15T06:16:23.760Z,5.73
2022-10-15T06:18:26.639Z,5.81
2022-10-15T06:20:41.192Z,5.80
2022-10-15T06:22:53.122Z,5.43
2022-10-15T06:24:56.582Z,5.74
2022-10-15T06:27:01.015Z,5.77
2022-10-15T06:29:03.333Z,5.94
2022-10-15T06:31:07.497Z,5.95
2022-10-15T06:35:13.807Z,5.97
2022-10-15T06:37:16.099Z,6.08
2022-10-15T06:39:18.306Z,6.12
2022-10-15T06:41:26.894Z,6.15
2022-10-15T06:43:31.135Z,6.20
2022-10-15T06:45:37.151Z,6.16
2022-10-15T06:47:45.040Z,6.14
2022-10-15T06:49:47.611Z,6.17
2022-10-15T06:51:49.895Z,6.21
2022-10-15T06:53:52.009Z,6.18
2022-10-15T06:56:12.570Z,6.13
2022-10-15T06:58:17.529Z,6.15
2022-10-15T07:00:19.742Z,6.26
2022-10-15T07:02:25.105Z,6.26
2022-10-15T07:04:28.650Z,6.25
2022-10-15T07:06:30.763Z,6.30
2022-10-15T07:08:33.561Z,6.33
2022-10-15T07:10:35.714Z,6.33
2022-10-15T07:12:37.889Z,6.24
2022-10-15T07:14:42.350Z,6.33
2022-10-15T07:16:44.990Z,6.31
2022-10-15T07:18:47.990Z,6.40
2022-10-15T07:20:50.231Z,6.39
2022-10-15T07:23:00.028Z,6.46
2022-10-15T07:25:05.584Z,6.51
2022-10-15T07:27:08.317Z,6.51
2022-10-15T07:29:20.692Z,6.63
2022-10-15T07:31:23.717Z,6.68
2022-10-15T07:33:25.854Z,6.74
2022-10-15T07:35:34.728Z,6.79
2022-10-15T07:37:37.008Z,6.87
2022-10-15T07:39:41.051Z,6.88
2022-10-15T07:41:43.953Z,7.01
2022-10-15T07:43:46.114Z,7.08
2022-10-15T07:45:49.461Z,7.10
2022-10-15T07:47:52.957Z,7.12
2022-10-15T07:49:55.330Z,7.09
2022-10-15T07:51:57.310Z,7.13
2022-10-15T07:54:00.025Z,7.17
2022-10-15T07:56:10.525Z,7.16
2022-10-15T07:58:12.663Z,7.35
2022-10-15T08:00:15.040Z,7.33
2022-10-15T08:02:19.225Z,7.47
2022-10-15T08:04:21.365Z,7.58
2022-10-15T08:06:24.893Z,7.61
2022-10-15T08:08:27.070Z,7.65
2022-10-15T08:10:57.121Z,7.76
2022-10-15T08:13:11.907Z,7.60
2022-10-15T08:15:14.125Z,7.78
2022-10-15T08:17:16.262Z,7.94
2022-10-15T08:19:18.573Z,8.06
2022-10-15T08:21:20.826Z,8.15
2022-10-15T08:23:22.800Z,8.34
2022-10-15T08:25:29.386Z,8.42
2022-10-15T08:27:34.553Z,8.57
2022-10-15T08:29:39.285Z,8.79
2022-10-15T08:31:41.839Z,8.89
2022-10-15T08:33:46.150Z,8.89
2022-10-15T08:35:48.293Z,8.99
2022-10-15T08:37:54.355Z,9.17
2022-10-15T08:39:56.601Z,9.21
2022-10-15T08:42:05.872Z,9.39
2022-10-15T08:44:24.050Z,9.44
2022-10-15T08:46:36.337Z,9.65
2022-10-15T08:48:46.120Z,9.66
2022-10-15T08:51:10.539Z,9.77
2022-10-15T08:53:16.285Z,9.66
2022-10-15T08:55:20.506Z,9.77
2022-10-15T08:57:36.043Z,9.71
2022-10-15T08:59:58.936Z,9.70
2022-10-15T09:02:08.350Z,9.75
2022-10-15T09:04:41.306Z,9.76
2022-10-15T09:06:44.048Z,9.67
2022-10-15T09:08:48.853Z,9.72
2022-10-15T09:10:55.408Z,9.64
2022-10-15T09:12:57.520Z,9.71
2022-10-15T09:15:01.102Z,9.66
2022-10-15T09:17:14.733Z,9.60
2022-10-15T09:19:22.419Z,9.66
2022-10-15T09:21:28.083Z,9.65
2022-10-15T09:23:30.683Z,9.61
2022-10-15T09:25:36.528Z,9.54
2022-10-15T09:27:47.613Z,9.48
2022-10-15T09:29:58.561Z,9.45
2022-10-15T09:32:22.049Z,9.41
2022-10-15T09:34:39.961Z,9.31
2022-10-15T09:37:14.902Z,9.43
2022-10-15T09:39:28.047Z,9.42
2022-10-15T09:41:50.576Z,9.47
2022-10-15T09:43:57.941Z,9.37
2022-10-15T09:46:05.389Z,9.43
2022-10-15T09:48:18.895Z,9.51
2022-10-15T09:50:21.178Z,9.51
2022-10-15T09:52:55.838Z,9.56
2022-10-15T09:55:03.690Z,9.45
2022-10-15T09:57:10.658Z,9.34
2022-10-15T09:59:23.200Z,9.34
2022-10-15T10:01:26.408Z,9.33
2022-10-15T10:03:33.513Z,9.28
2022-10-15T10:05:37.574Z,9.35
2022-10-15T10:07:42.125Z,9.27
2022-10-15T10:09:57.234Z,9.31
2022-10-15T10:12:11.079Z,9.28
2022-10-15T10:14:34.531Z,9.20
2022-10-15T10:17:08.898Z,9.15
2022-10-15T10:19:15.684Z,9.06
2022-10-15T10:21:26.642Z,8.97
2022-10-15T10:23:39.533Z,8.97
2022-10-15T10:25:42.947Z,8.96
2022-10-15T10:27:46.047Z,8.92
2022-10-15T10:30:01.642Z,9.16
2022-10-15T10:32:21.582Z,9.21
2022-10-15T10:34:33.479Z,9.27
2022-10-15T10:36:39.456Z,9.27
2022-10-15T10:39:15.399Z,9.45
2022-10-15T10:41:18.050Z,9.45
2022-10-15T10:43:27.992Z,9.68
2022-10-15T10:45:30.253Z,9.71
2022-10-15T10:47:38.409Z,9.76
2022-10-15T10:49:58.247Z,9.91
2022-10-15T10:52:00.556Z,9.96
2022-10-15T10:54:05.850Z,10.05
2022-10-15T10:56:14.642Z,10.14
2022-10-15T10:58:26.263Z,10.02
2022-10-15T11:00:55.814Z,10.23
2022-10-15T11:02:58.023Z,10.21
2022-10-15T11:05:00.151Z,10.25
2022-10-15T11:07:24.182Z,10.48
2022-10-15T11:09:29.932Z,10.52
2022-10-15T11:11:49.285Z,10.52
2022-10-15T11:14:20.005Z,10.50
2022-10-15T11:16:32.438Z,10.57
2022-10-15T11:19:06.290Z,10.57
2022-10-15T11:21:46.251Z,10.59
2022-10-15T11:23:51.098Z,10.57
2022-10-15T11:26:11.488Z,10.59
2022-10-15T11:28:28.430Z,10.52
2022-10-15T11:30:35.176Z,10.53
2022-10-15T11:33:07.334Z,10.55
2022-10-15T11:35:53.366Z,10.53
2022-10-15T11:38:34.020Z,10.51
2022-10-15T11:40:45.762Z,10.42
2022-10-15T11:42:58.893Z,10.44
2022-10-15T11:45:26.387Z,10.42
2022-10-15T11:47:53.197Z,10.36
2022-10-15T11:50:16.811Z,10.36
2022-10-15T11:52:37.818Z,10.37
2022-10-15T11:55:02.634Z,10.36
2022-10-15T11:57:11.893Z,10.35
2022-10-15T11:59:35.327Z,10.33
2022-10-15T12:01:43.941Z,10.26
2022-10-15T12:04:02.596Z,10.25
2022-10-15T12:06:17.270Z,10.19
2022-10-15T12:08:33.003Z,10.15
2022-10-15T12:11:13.507Z,10.17
2022-10-15T12:13:41.695Z,10.14
2022-10-15T12:16:12.735Z,10.08
2022-10-15T12:18:23.359Z,10.08
2022-10-15T12:20:27.438Z,10.03
2022-10-15T12:22:38.812Z,10.06
2022-10-15T12:24:50.418Z,10.05
2022-10-15T12:26:52.838Z,10.06
2022-10-15T12:28:59.428Z,10.07
2022-10-15T12:31:06.609Z,10.03
2022-10-15T12:33:29.074Z,10.14
2022-10-15T12:35:38.635Z,10.06
2022-10-15T12:37:43.704Z,10.04
2022-10-15T12:39:52.625Z,9.98
2022-10-15T12:41:56.267Z,10.03
2022-10-15T12:44:09.016Z,9.96
2022-10-15T12:46:13.819Z,10.02
2022-10-15T12:48:16.568Z,10.06
2022-10-15T12:50:24.918Z,9.91
2022-10-15T12:52:55.191Z,9.93
2022-10-15T12:55:32.282Z,9.88
2022-10-15T12:57:34.762Z,9.83
2022-10-15T12:59:46.093Z,9.83
2022-10-15T13:01:52.272Z,9.76
2022-10-15T13:03:56.416Z,9.69
2022-10-15T13:06:15.223Z,9.71
2022-10-15T13:08:26.147Z,9.59
2022-10-15T13:10:35.183Z,9.61
2022-10-15T13:12:37.482Z,9.51
2022-10-15T13:14:48.579Z,9.49
2022-10-15T13:16:51.092Z,9.38
2022-10-15T13:18:57.302Z,9.17
2022-10-15T13:23:31.981Z,9.01
2022-10-15T13:25:34.406Z,8.87
2022-10-15T13:27:37.885Z,8.83
2022-10-15T13:29:40.084Z,8.49
2022-10-15T13:31:45.171Z,8.60
2022-10-15T13:33:56.004Z,8.50
2022-10-15T13:36:06.994Z,8.35
2022-10-15T13:38:22.010Z,8.30
2022-10-15T13:40:30.897Z,8.12
2022-10-15T13:42:46.689Z,8.07
2022-10-15T13:45:18.783Z,8.01
2022-10-15T13:47:39.907Z,7.88
2022-10-15T13:49:42.018Z,7.69
2022-10-15T13:51:48.073Z,7.68
2022-10-15T13:53:50.680Z,7.67
2022-10-15T13:55:55.609Z,7.57
2022-10-15T13:58:05.383Z,7.45
2022-10-15T14:00:19.198Z,7.45
2022-10-15T14:02:21.623Z,7.34
2022-10-15T14:04:24.257Z,7.29
2022-10-15T14:06:27.717Z,7.23
2022-10-15T14:08:35.532Z,7.11
2022-10-15T14:10:37.765Z,7.15
2022-10-15T14:12:39.819Z,7.12
2022-10-15T14:14:48.241Z,7.08
2022-10-15T14:16:50.869Z,6.97
2022-10-15T14:18:56.824Z,7.00
2022-10-15T14:21:00.321Z,6.88
2022-10-15T14:23:02.566Z,6.95
2022-10-15T14:25:09.299Z,6.92
2022-10-15T14:27:12.971Z,6.91
2022-10-15T14:29:37.282Z,6.93
2022-10-15T14:31:41.338Z,6.89
2022-10-15T14:33:44.614Z,6.80
2022-10-15T14:36:03.068Z,6.87
2022-10-15T14:38:16.560Z,6.84
2022-10-15T14:40:20.703Z,6.80
2022-10-15T14:42:37.415Z,6.65
2022-10-15T14:44:48.214Z,6.73
2022-10-15T14:46:58.896Z,6.55
2022-10-15T14:49:01.402Z,6.55
2022-10-15T14:51:06.771Z,6.48
2022-10-15T14:53:16.235Z,6.52
2022-10-15T14:55:24.646Z,6.49
2022-10-15T14:57:31.336Z,6.42
2022-10-15T14:59:37.490Z,6.30
2022-10-15T15:01:40.062Z,6.33
2022-10-15T15:03:47.847Z,6.26
2022-10-15T15:05:55.993Z,6.28
2022-10-15T15:08:00.874Z,6.14
2022-10-15T15:10:08.866Z,6.13
2022-10-15T15:12:17.680Z,6.08
2022-10-15T15:14:27.198Z,5.99
2022-10-15T15:16:29.646Z,6.05
2022-10-15T15:18:31.740Z,6.01
2022-10-15T15:20:33.852Z,6.04
2022-10-15T15:22:36.608Z,6.02
2022-10-15T15:24:38.992Z,5.96
2022-10-15T15:26:40.879Z,6.00
2022-10-15T15:28:43.142Z,5.95
2022-10-15T15:30:45.328Z,5.92
2022-10-15T15:32:48.388Z,5.97
2022-10-15T15:34:52.600Z,5.95
2022-10-15T15:36:54.676Z,5.96
2022-10-15T15:38:58.995Z,6.02
2022-10-15T15:41:04.357Z,6.00
2022-10-15T15:43:06.589Z,5.91
2022-10-15T15:45:22.818Z,6.01
2022-10-15T15:47:27.465Z,5.99
2022-10-15T15:49:30.247Z,5.86
2022-10-15T15:51:33.148Z,5.91
2022-10-15T15:53:36.011Z,5.91
2022-10-15T15:55:41.020Z,5.86
2022-10-15T15:57:43.312Z,5.83
2022-10-15T15:59:45.856Z,5.76
2022-10-15T16:01:48.067Z,5.76
2022-10-15T16:03:51.809Z,5.71
2022-10-15T16:05:54.298Z,5.67
2022-10-15T16:07:56.786Z,5.65
2022-10-15T16:09:59.042Z,5.58
2022-10-15T16:12:02.002Z,5.54
2022-10-15T16:14:09.067Z,5.51
2022-10-15T16:16:11.882Z,5.43
2022-10-15T16:18:13.808Z,5.44
2022-10-15T16:20:17.816Z,5.37
2022-10-15T16:22:19.918Z,5.35
2022-10-15T16:24:22.352Z,5.26
2022-10-15T16:26:24.714Z,5.25
2022-10-15T16:28:27.000Z,5.22
2022-10-15T16:30:29.725Z,5.16
2022-10-15T16:32:32.001Z,5.08
2022-10-15T16:34:34.061Z,5.06
2022-10-15T16:36:36.447Z,4.94
2022-10-15T16:38:41.975Z,4.92
2022-10-15T16:40:46.545Z,4.81
2022-10-15T16:42:50.060Z,4.75
2022-10-15T16:44:52.838Z,4.77
2022-10-15T16:46:57.641Z,4.63
2022-10-15T16:49:00.209Z,4.56
2022-10-15T16:51:09.009Z,4.66
2022-10-15T16:53:11.860Z,4.54
2022-10-15T16:55:16.969Z,4.52
2022-10-15T16:57:19.292Z,4.50
2022-10-15T16:59:21.322Z,4.52
2022-10-15T17:01:29.238Z,4.48
2022-10-15T17:03:33.732Z,4.42
2022-10-15T17:05:36.024Z,4.43
2022-10-15T17:07:41.429Z,4.38
2022-10-15T17:09:45.194Z,4.29
2022-10-15T17:11:48.096Z,4.29
2022-10-15T17:13:58.186Z,4.33
2022-10-15T17:16:20.868Z,4.34
2022-10-15T17:18:24.746Z,4.16
2022-10-15T17:20:34.657Z,4.20
2022-10-15T17:22:37.753Z,4.16
2022-10-15T17:24:40.270Z,4.15
2022-10-15T17:26:52.065Z,4.20
2022-10-15T17:28:56.967Z,4.17
2022-10-15T17:31:08.423Z,4.14
2022-10-15T17:33:13.345Z,4.15
2022-10-15T17:35:18.616Z,4.09
2022-10-15T17:37:23.198Z,4.05
2022-10-15T17:39:25.458Z,4.04
2022-10-15T17:41:30.093Z,3.95
2022-10-15T17:43:37.631Z,3.98
2022-10-15T17:45:42.635Z,4.01
2022-10-15T17:47:45.051Z,3.87
2022-10-15T17:49:47.857Z,3.92
2022-10-15T17:51:50.140Z,3.86
2022-10-15T17:53:56.363Z,3.93
2022-10-15T17:55:59.506Z,3.94
2022-10-15T17:58:01.755Z,3.88
2022-10-15T18:00:04.727Z,3.91
2022-10-15T18:02:14.971Z,3.88
2022-10-15T18:04:23.635Z,3.84
2022-10-15T18:06:27.002Z,3.79
2022-10-15T18:08:29.577Z,3.71
2022-10-15T18:10:32.065Z,3.73
2022-10-15T18:12:34.143Z,3.75
2022-10-15T18:14:37.131Z,3.71
2022-10-15T18:16:41.774Z,3.59
2022-10-15T18:18:57.542Z,3.48
2022-10-15T18:21:14.921Z,3.53
2022-10-15T18:23:19.510Z,3.50
2022-10-15T18:25:22.172Z,3.58
2022-10-15T18:27:24.903Z,3.59
2022-10-15T18:29:30.060Z,3.53
2022-10-15T18:31:32.326Z,3.55
2022-10-15T18:33:40.037Z,3.51
2022-10-15T18:35:44.983Z,3.59
2022-10-15T18:37:47.341Z,3.56
2022-10-15T18:39:50.099Z,3.55
2022-10-15T18:41:52.677Z,3.51
2022-10-15T18:44:04.038Z,3.55
2022-10-15T18:46:07.601Z,3.51
2022-10-15T18:48:10.548Z,3.49
2022-10-15T18:50:13.012Z,3.41
2022-10-15T18:52:28.053Z,3.43
2022-10-15T18:54:39.021Z,3.43
2022-10-15T18:56:41.722Z,3.28
2022-10-15T18:58:44.060Z,3.32
2022-10-15T19:00:46.448Z,3.20
2022-10-15T19:02:59.991Z,3.28
2022-10-15T19:05:02.227Z,3.20
2022-10-15T19:07:05.802Z,3.17
2022-10-15T19:09:13.721Z,3.15
2022-10-15T19:11:17.200Z,3.09
2022-10-15T19:13:19.694Z,3.08
2022-10-15T19:15:21.783Z,3.12
2022-10-15T19:17:24.986Z,3.02
2022-10-15T19:19:28.996Z,3.03
2022-10-15T19:21:32.634Z,3.07
2022-10-15T19:23:35.107Z,3.06
2022-10-15T19:25:41.937Z,3.06
2022-10-15T19:27:44.432Z,2.91
2022-10-15T19:29:46.596Z,3.02
2022-10-15T19:31:49.927Z,2.99
2022-10-15T19:33:58.250Z,3.03
2022-10-15T19:36:01.193Z,3.02
2022-10-15T19:38:03.917Z,2.94
2022-10-15T19:40:08.486Z,3.00
2022-10-15T19:42:10.660Z,2.91
2022-10-15T19:44:14.603Z,2.94
2022-10-15T19:46:17.132Z,2.88
2022-10-15T19:48:23.085Z,2.83
2022-10-15T19:50:25.296Z,2.86
2022-10-15T19:52:33.674Z,2.83
2022-10-15T19:54:36.284Z,2.77
2022-10-15T19:56:38.354Z,2.79
2022-10-15T19:58:43.670Z,2.74
2022-10-15T20:00:49.452Z,2.63
2022-10-15T20:02:52.033Z,2.69
2022-10-15T20:04:54.143Z,2.69
2022-10-15T20:06:56.375Z,2.59
2022-10-15T20:08:59.153Z,2.55
2022-10-15T20:11:01.323Z,2.63
2022-10-15T20:13:03.517Z,2.58
2022-10-15T20:15:06.456Z,2.44
2022-10-15T20:17:08.637Z,2.51
2022-10-15T20:19:12.627Z,2.47
2022-10-15T20:21:17.040Z,2.46
2022-10-15T20:23:19.911Z,2.40
2022-10-15T20:25:22.080Z,2.49
2022-10-15T20:27:24.210Z,2.45
2022-10-15T20:29:27.341Z,2.46
2022-10-15T20:31:33.060Z,2.43
2022-10-15T20:33:38.999Z,2.39
2022-10-15T20:35:42.362Z,2.24
2022-10-15T20:37:44.395Z,2.35
2022-10-15T20:39:46.818Z,2.37
2022-10-15T20:41:49.625Z,2.39
2022-10-15T20:43:55.054Z,2.42
2022-10-15T20:45:57.504Z,2.42
2022-10-15T20:47:59.852Z,2.39
2022-10-15T20:50:07.475Z,2.34
2022-10-15T20:52:09.943Z,2.27
2022-10-15T20:54:13.410Z,2.27
2022-10-15T20:56:15.733Z,2.25
2022-10-15T20:58:17.787Z,2.32
2022-10-15T21:00:19.930Z,2.25
2022-10-15T21:02:21.967Z,2.29
2022-10-15T21:04:23.999Z,2.12
2022-10-15T21:06:26.278Z,2.27
2022-10-15T21:08:28.797Z,2.25
2022-10-15T21:10:30.941Z,2.27
2022-10-15T21:12:33.125Z,2.24
2022-10-15T21:14:35.296Z,2.26
2022-10-15T21:16:37.517Z,2.20
2022-10-15T21:18:39.940Z,2.27
2022-10-15T21:20:42.586Z,2.25
2022-10-15T21:22:47.070Z,2.23
2022-10-15T21:24:49.770Z,2.26
2022-10-15T21:26:51.872Z,2.21
2022-10-15T21:28:59.025Z,2.24
2022-10-15T21:31:05.941Z,2.25
2022-10-15T21:33:08.062Z,2.15
2022-10-15T21:35:11.017Z,2.09
2022-10-15T21:37:13.167Z,2.10
2022-10-15T21:39:16.413Z,2.16
2022-10-15T21:41:18.640Z,2.17
2022-10-15T21:43:20.826Z,2.09
2022-10-15T21:45:22.993Z,2.14
2022-10-15T21:47:25.680Z,2.11
2022-10-15T21:49:28.103Z,2.04
2022-10-15T21:51:33.640Z,2.02
2022-10-15T21:53:37.516Z,2.02
2022-10-15T21:55:40.107Z,2.00
2022-10-15T21:57:43.161Z,2.01
2022-10-15T21:59:45.264Z,2.00
2022-10-15T22:01:50.485Z,1.92
2022-10-15T22:03:57.682Z,1.94
2022-10-15T22:06:00.863Z,1.80
2022-10-15T22:08:02.931Z,1.88
2022-10-15T22:10:05.475Z,1.83
2022-10-15T22:12:07.759Z,1.77
2022-10-15T22:14:12.604Z,1.84
2022-10-15T22:16:16.562Z,1.78
2022-10-15T22:18:18.807Z,1.84
2022-10-15T22:20:24.055Z,1.84
2022-10-15T22:22:26.541Z,1.77
2022-10-15T22:24:29.677Z,1.77
2022-10-15T22:26:38.321Z,1.77
2022-10-15T22:28:41.498Z,1.78
2022-10-15T22:30:44.312Z,1.74
2022-10-15T22:32:46.422Z,1.72
2022-10-15T22:34:48.630Z,1.68
2022-10-15T22:36:51.942Z,1.67
2022-10-15T22:38:56.782Z,1.71
2022-10-15T22:40:59.728Z,1.60
2022-10-15T22:43:03.752Z,1.58
2022-10-15T22:45:06.796Z,1.60
2022-10-15T22:47:09.690Z,1.53
2022-10-15T22:49:13.025Z,1.58
2022-10-15T22:51:16.070Z,1.60
2022-10-15T22:53:18.662Z,1.61
2022-10-15T22:55:20.802Z,1.54
2022-10-15T22:57:23.300Z,1.53
2022-10-15T22:59:25.466Z,1.48
2022-10-15T23:01:30.120Z,1.53
2022-10-15T23:03:32.404Z,1.41
2022-10-15T23:05:34.528Z,1.46
2022-10-15T23:07:38.295Z,1.39
2022-10-15T23:09:40.659Z,1.46
2022-10-15T23:11:42.945Z,1.33
2022-10-15T23:13:45.957Z,1.43
2022-10-15T23:15:47.927Z,1.37
2022-10-15T23:17:52.557Z,1.27
2022-10-15T23:19:54.614Z,1.23
2022-10-15T23:22:00.309Z,1.27
2022-10-15T23:24:04.196Z,1.24
2022-10-15T23:26:06.573Z,1.29
2022-10-15T23:28:09.682Z,1.26
2022-10-15T23:30:24.604Z,1.20
2022-10-15T23:32:27.307Z,1.22
2022-10-15T23:34:29.513Z,1.14
2022-10-15T23:36:33.625Z,1.12
2022-10-15T23:38:35.729Z,1.13
2022-10-15T23:40:37.851Z,1.16
2022-10-15T23:42:40.407Z,1.17
2022-10-15T23:44:43.017Z,1.16
2022-10-15T23:46:45.477Z,1.17
2022-10-15T23:48:47.997Z,1.10
2022-10-15T23:50:50.206Z,1.13
2022-10-15T23:52:52.835Z,0.97
2022-10-15T23:54:54.900Z,1.07
2022-10-15T23:56:57.126Z,1.09
2022-10-15T23:59:01.298Z,1.03
